createdAt,value
2023-04-19T00:00:36.474Z,379.00
2023-04-19T00:01:36.663Z,382.00
2023-04-19T00:02:36.628Z,379.00
2023-04-19T00:03:36.623Z,380.00
2023-04-19T00:04:36.623Z,377.00
2023-04-19T00:05:36.540Z,376.00
2023-04-19T00:06:36.550Z,372.00
2023-04-19T00:07:36.570Z,372.00
2023-04-19T00:08:36.567Z,371.00
2023-04-19T00:09:36.584Z,369.00
2023-04-19T00:10:36.592Z,371.00
2023-04-19T00:11:36.588Z,372.00
2023-04-19T00:12:36.597Z,375.00
2023-04-19T00:13:36.579Z,376.00
2023-04-19T00:14:36.593Z,377.00
2023-04-19T00:15:36.591Z,378.00
2023-04-19T00:16:36.602Z,378.00
2023-04-19T00:17:36.601Z,376.00
2023-04-19T00:18:36.570Z,377.00
2023-04-19T00:19:36.572Z,377.00
2023-04-19T00:20:36.568Z,379.00
2023-04-19T00:21:36.567Z,379.00
2023-04-19T00:22:36.570Z,377.00
2023-04-19T00:23:36.556Z,377.00
2023-04-19T00:24:36.561Z,377.00
2023-04-19T00:25:36.550Z,376.00
2023-04-19T00:26:36.545Z,374.00
2023-04-19T00:27:36.545Z,377.00
2023-04-19T00:28:36.548Z,377.00
2023-04-19T00:29:36.655Z,376.00
2023-04-19T00:30:36.546Z,374.00
2023-04-19T00:31:36.512Z,373.00
2023-04-19T00:32:36.548Z,370.00
2023-04-19T00:33:36.524Z,370.00
2023-04-19T00:34:36.520Z,372.00
2023-04-19T00:35:36.492Z,372.00
2023-04-19T00:36:36.495Z,371.00
2023-04-19T00:37:36.494Z,371.00
2023-04-19T00:38:36.489Z,371.00
2023-04-19T00:39:36.499Z,372.00
2023-04-19T00:40:36.479Z,372.00
2023-04-19T00:41:36.475Z,371.00
2023-04-19T00:42:36.472Z,372.00
2023-04-19T00:43:36.473Z,374.00
2023-04-19T00:44:36.486Z,373.00
2023-04-19T00:45:36.487Z,373.00
2023-04-19T00:46:36.535Z,373.00
2023-04-19T00:47:36.553Z,372.00
2023-04-19T00:48:36.456Z,375.00
2023-04-19T00:49:36.487Z,376.00
2023-04-19T00:50:36.443Z,376.00
2023-04-19T00:51:36.443Z,375.00
2023-04-19T00:52:36.448Z,374.00
2023-04-19T00:53:36.470Z,374.00
2023-04-19T00:54:36.480Z,375.00
2023-04-19T00:55:36.501Z,376.00
2023-04-19T00:56:36.522Z,375.00
2023-04-19T00:57:36.530Z,375.00
2023-04-19T00:58:36.556Z,375.00
2023-04-19T00:59:36.581Z,373.00
2023-04-19T01:00:36.596Z,373.00
2023-04-19T01:01:36.636Z,371.00
2023-04-19T01:02:36.746Z,372.00
2023-04-19T01:03:36.934Z,371.00
2023-04-19T01:04:36.750Z,370.00
2023-04-19T01:05:36.711Z,372.00
2023-04-19T01:06:36.731Z,371.00
2023-04-19T01:07:36.781Z,370.00
2023-04-19T01:08:36.799Z,370.00
2023-04-19T01:09:36.860Z,371.00
2023-04-19T01:10:36.883Z,370.00
2023-04-19T01:11:36.895Z,369.00
2023-04-19T01:12:36.941Z,370.00
2023-04-19T01:13:36.965Z,368.00
2023-04-19T01:14:37.001Z,370.00
2023-04-19T01:15:37.149Z,366.00
2023-04-19T01:16:37.067Z,365.00
2023-04-19T01:17:37.200Z,368.00
2023-04-19T01:18:37.212Z,368.00
2023-04-19T01:19:37.193Z,369.00
2023-04-19T01:20:37.221Z,367.00
2023-04-19T01:21:37.278Z,367.00
2023-04-19T01:22:37.288Z,365.00
2023-04-19T01:23:37.331Z,364.00
2023-04-19T01:24:37.344Z,367.00
2023-04-19T01:25:37.479Z,368.00
2023-04-19T01:26:37.413Z,369.00
2023-04-19T01:27:37.437Z,368.00
2023-04-19T01:28:37.456Z,367.00
2023-04-19T01:29:37.489Z,367.00
2023-04-19T01:30:37.532Z,368.00
2023-04-19T01:31:37.649Z,369.00
2023-04-19T01:32:37.687Z,369.00
2023-04-19T01:33:37.659Z,367.00
2023-04-19T01:34:37.676Z,368.00
2023-04-19T01:35:37.678Z,369.00
2023-04-19T01:36:37.658Z,368.00
2023-04-19T01:37:37.666Z,366.00
2023-04-19T01:38:37.664Z,364.00
2023-04-19T01:39:37.650Z,362.00
2023-04-19T01:40:37.656Z,361.00
2023-04-19T01:41:37.645Z,361.00
2023-04-19T01:42:37.655Z,362.00
2023-04-19T01:43:37.653Z,362.00
2023-04-19T01:44:37.647Z,364.00
2023-04-19T01:45:37.632Z,365.00
2023-04-19T01:46:37.642Z,367.00
2023-04-19T01:47:37.742Z,367.00
2023-04-19T01:48:37.651Z,368.00
2023-04-19T01:49:37.659Z,367.00
2023-04-19T01:50:37.699Z,366.00
2023-04-19T01:51:37.751Z,365.00
2023-04-19T01:52:37.765Z,362.00
2023-04-19T01:53:37.798Z,363.00
2023-04-19T01:54:37.831Z,363.00
2023-04-19T01:55:37.867Z,364.00
2023-04-19T01:56:37.914Z,364.00
2023-04-19T01:57:37.930Z,363.00
2023-04-19T01:58:37.950Z,361.00
2023-04-19T01:59:37.991Z,360.00
2023-04-19T02:00:38.079Z,362.00
2023-04-19T02:01:38.054Z,361.00
2023-04-19T02:02:38.224Z,362.00
2023-04-19T02:03:38.386Z,361.00
2023-04-19T02:04:38.156Z,361.00
2023-04-19T02:05:38.189Z,359.00
2023-04-19T02:06:38.226Z,359.00
2023-04-19T02:07:38.260Z,358.00
2023-04-19T02:08:38.297Z,357.00
2023-04-19T02:09:38.280Z,358.00
2023-04-19T02:10:38.297Z,359.00
2023-04-19T02:11:38.281Z,360.00
2023-04-19T02:12:38.272Z,358.00
2023-04-19T02:13:38.275Z,357.00
2023-04-19T02:14:38.292Z,356.00
2023-04-19T02:15:38.254Z,357.00
2023-04-19T02:16:38.328Z,359.00
2023-04-19T02:17:38.276Z,358.00
2023-04-19T02:18:38.264Z,356.00
2023-04-19T02:19:38.241Z,355.00
2023-04-19T02:20:38.252Z,353.00
2023-04-19T02:21:38.251Z,352.00
2023-04-19T02:22:38.285Z,351.00
2023-04-19T02:23:38.366Z,350.00
2023-04-19T02:24:38.391Z,349.00
2023-04-19T02:25:38.454Z,348.00
2023-04-19T02:26:38.463Z,348.00
2023-04-19T02:27:38.535Z,349.00
2023-04-19T02:28:38.578Z,349.00
2023-04-19T02:29:38.608Z,350.00
2023-04-19T02:30:38.727Z,352.00
2023-04-19T02:31:38.708Z,353.00
2023-04-19T02:32:38.743Z,354.00
2023-04-19T02:33:38.763Z,354.00
2023-04-19T02:34:38.791Z,353.00
2023-04-19T02:35:38.842Z,354.00
2023-04-19T02:36:38.874Z,354.00
2023-04-19T02:37:38.930Z,355.00
2023-04-19T02:38:38.959Z,356.00
2023-04-19T02:39:39.014Z,356.00
2023-04-19T02:40:39.044Z,355.00
2023-04-19T02:41:39.096Z,356.00
2023-04-19T02:42:39.197Z,357.00
2023-04-19T02:43:39.183Z,357.00
2023-04-19T02:44:39.162Z,358.00
2023-04-19T02:45:39.183Z,357.00
2023-04-19T02:46:39.155Z,356.00
2023-04-19T02:47:39.154Z,358.00
2023-04-19T02:48:39.128Z,357.00
2023-04-19T02:49:39.147Z,355.00
2023-04-19T02:50:39.147Z,354.00
2023-04-19T02:51:39.099Z,349.00
2023-04-19T02:52:39.105Z,351.00
2023-04-19T02:53:39.098Z,350.00
2023-04-19T02:54:39.117Z,350.00
2023-04-19T02:55:39.151Z,352.00
2023-04-19T02:56:39.194Z,351.00
2023-04-19T02:57:39.241Z,352.00
2023-04-19T02:58:39.406Z,354.00
2023-04-19T02:59:39.341Z,354.00
2023-04-19T03:00:39.382Z,354.00
2023-04-19T03:01:39.476Z,357.00
2023-04-19T03:02:39.573Z,356.00
2023-04-19T03:03:39.582Z,354.00
2023-04-19T03:04:39.545Z,353.00
2023-04-19T03:05:39.582Z,353.00
2023-04-19T03:06:39.629Z,354.00
2023-04-19T03:07:39.672Z,353.00
2023-04-19T03:08:39.704Z,354.00
2023-04-19T03:09:39.754Z,353.00
2023-04-19T03:10:39.798Z,356.00
2023-04-19T03:11:39.842Z,356.00
2023-04-19T03:12:39.871Z,358.00
2023-04-19T03:13:39.914Z,356.00
2023-04-19T03:14:39.954Z,355.00
2023-04-19T03:15:40.033Z,357.00
2023-04-19T03:16:40.024Z,359.00
2023-04-19T03:17:40.061Z,357.00
2023-04-19T03:18:40.029Z,356.00
2023-04-19T03:19:40.105Z,354.00
2023-04-19T03:20:40.018Z,353.00
2023-04-19T03:21:40.014Z,352.00
2023-04-19T03:22:40.023Z,352.00
2023-04-19T03:23:40.021Z,352.00
2023-04-19T03:24:40.018Z,353.00
2023-04-19T03:25:40.022Z,353.00
2023-04-19T03:26:40.042Z,353.00
2023-04-19T03:27:40.020Z,352.00
2023-04-19T03:28:40.022Z,350.00
2023-04-19T03:29:40.040Z,351.00
2023-04-19T03:30:40.038Z,350.00
2023-04-19T03:31:40.273Z,350.00
2023-04-19T03:32:40.150Z,350.00
2023-04-19T03:33:40.167Z,351.00
2023-04-19T03:34:40.210Z,350.00
2023-04-19T03:35:40.249Z,350.00
2023-04-19T03:36:40.293Z,352.00
2023-04-19T03:37:40.317Z,352.00
2023-04-19T03:38:40.355Z,352.00
2023-04-19T03:39:40.397Z,354.00
2023-04-19T03:40:40.440Z,353.00
2023-04-19T03:41:40.477Z,351.00
2023-04-19T03:42:40.515Z,351.00
2023-04-19T03:43:40.547Z,349.00
2023-04-19T03:44:40.590Z,347.00
2023-04-19T03:45:40.626Z,345.00
2023-04-19T03:46:40.798Z,348.00
2023-04-19T03:47:40.761Z,348.00
2023-04-19T03:48:40.748Z,348.00
2023-04-19T03:49:40.792Z,349.00
2023-04-19T03:50:40.833Z,347.00
2023-04-19T03:51:40.865Z,345.00
2023-04-19T03:52:40.899Z,345.00
2023-04-19T03:53:40.958Z,345.00
2023-04-19T03:54:40.998Z,345.00
2023-04-19T03:55:41.049Z,343.00
2023-04-19T03:56:41.073Z,343.00
2023-04-19T03:57:41.130Z,343.00
2023-04-19T03:58:42.700Z,345.00
2023-04-19T03:59:41.202Z,345.00
2023-04-19T04:00:41.251Z,344.00
2023-04-19T04:01:41.310Z,340.00
2023-04-19T04:02:41.478Z,340.00
2023-04-19T04:03:41.679Z,344.00
2023-04-19T04:04:41.594Z,342.00
2023-04-19T04:05:41.498Z,342.00
2023-04-19T04:06:41.489Z,341.00
2023-04-19T04:07:41.526Z,339.00
2023-04-19T04:08:41.562Z,342.00
2023-04-19T04:09:41.611Z,340.00
2023-04-19T04:10:41.644Z,341.00
2023-04-19T04:11:41.680Z,345.00
2023-04-19T04:12:41.736Z,344.00
2023-04-19T04:13:41.792Z,344.00
2023-04-19T04:14:41.808Z,341.00
2023-04-19T04:15:41.872Z,340.00
2023-04-19T04:16:41.990Z,339.00
2023-04-19T04:17:41.974Z,337.00
2023-04-19T04:18:41.962Z,338.00
2023-04-19T04:19:42.019Z,336.00
2023-04-19T04:20:42.057Z,337.00
2023-04-19T04:21:42.093Z,337.00
2023-04-19T04:22:42.137Z,339.00
2023-04-19T04:23:42.178Z,339.00
2023-04-19T04:24:42.229Z,339.00
2023-04-19T04:25:42.267Z,339.00
2023-04-19T04:26:42.306Z,341.00
2023-04-19T04:27:42.353Z,341.00
2023-04-19T04:28:42.398Z,340.00
2023-04-19T04:29:42.455Z,336.00
2023-04-19T04:30:42.488Z,335.00
2023-04-19T04:31:42.574Z,334.00
2023-04-19T04:32:42.664Z,336.00
2023-04-19T04:33:42.632Z,338.00
2023-04-19T04:34:42.658Z,338.00
2023-04-19T04:35:42.704Z,337.00
2023-04-19T04:36:42.741Z,336.00
2023-04-19T04:37:42.790Z,336.00
2023-04-19T04:38:42.835Z,336.00
2023-04-19T04:39:42.835Z,339.00
2023-04-19T04:40:42.827Z,338.00
2023-04-19T04:41:42.835Z,336.00
2023-04-19T04:42:42.841Z,337.00
2023-04-19T04:43:42.832Z,338.00
2023-04-19T04:44:42.832Z,335.00
2023-04-19T04:45:42.886Z,336.00
2023-04-19T04:46:42.832Z,337.00
2023-04-19T04:47:42.917Z,337.00
2023-04-19T04:48:42.830Z,336.00
2023-04-19T04:49:42.838Z,338.00
2023-04-19T04:50:42.849Z,338.00
2023-04-19T04:51:42.909Z,338.00
2023-04-19T04:52:42.926Z,339.00
2023-04-19T04:53:42.980Z,341.00
2023-04-19T04:54:43.039Z,340.00
2023-04-19T04:55:43.092Z,336.00
2023-04-19T04:56:43.202Z,335.00
2023-04-19T04:57:43.125Z,336.00
2023-04-19T04:58:43.134Z,336.00
2023-04-19T04:59:43.141Z,339.00
2023-04-19T05:00:43.140Z,339.00
2023-04-19T05:01:43.299Z,337.00
2023-04-19T05:02:43.276Z,335.00
2023-04-19T05:03:43.151Z,334.00
2023-04-19T05:04:43.255Z,334.00
2023-04-19T05:05:44.979Z,332.00
2023-04-19T05:06:43.152Z,333.00
2023-04-19T05:07:43.150Z,333.00
2023-04-19T05:08:43.159Z,334.00
2023-04-19T05:09:43.168Z,335.00
2023-04-19T05:10:43.158Z,335.00
2023-04-19T05:11:43.165Z,334.00
2023-04-19T05:12:43.175Z,336.00
2023-04-19T05:13:43.173Z,336.00
2023-04-19T05:14:43.176Z,335.00
2023-04-19T05:15:43.160Z,336.00
2023-04-19T05:16:43.221Z,339.00
2023-04-19T05:17:43.267Z,341.00
2023-04-19T05:18:43.153Z,340.00
2023-04-19T05:19:43.189Z,340.00
2023-04-19T05:20:43.149Z,339.00
2023-04-19T05:21:43.153Z,342.00
2023-04-19T05:22:43.145Z,341.00
2023-04-19T05:23:43.155Z,340.00
2023-04-19T05:24:43.169Z,337.00
2023-04-19T05:25:43.132Z,338.00
2023-04-19T05:26:43.144Z,336.00
2023-04-19T05:27:43.133Z,335.00
2023-04-19T05:28:43.163Z,338.00
2023-04-19T05:29:43.168Z,338.00
2023-04-19T05:30:43.162Z,339.00
2023-04-19T05:31:43.224Z,341.00
2023-04-19T05:32:43.211Z,341.00
2023-04-19T05:33:43.247Z,341.00
2023-04-19T05:34:43.315Z,340.00
2023-04-19T05:35:43.327Z,341.00
2023-04-19T05:36:43.381Z,340.00
2023-04-19T05:37:43.424Z,339.00
2023-04-19T05:38:43.513Z,340.00
2023-04-19T05:39:44.378Z,340.00
2023-04-19T05:40:43.607Z,341.00
2023-04-19T05:41:43.618Z,340.00
2023-04-19T05:42:43.674Z,341.00
2023-04-19T05:43:43.699Z,340.00
2023-04-19T05:44:43.769Z,341.00
2023-04-19T05:45:43.846Z,341.00
2023-04-19T05:46:43.900Z,340.00
2023-04-19T05:47:43.898Z,339.00
2023-04-19T05:48:43.914Z,340.00
2023-04-19T05:49:43.994Z,342.00
2023-04-19T05:50:44.006Z,344.00
2023-04-19T05:51:44.044Z,344.00
2023-04-19T05:52:44.092Z,346.00
2023-04-19T05:53:44.097Z,344.00
2023-04-19T05:54:44.130Z,344.00
2023-04-19T05:55:44.151Z,344.00
2023-04-19T05:56:44.218Z,344.00
2023-04-19T05:57:44.231Z,346.00
2023-04-19T05:58:44.220Z,347.00
2023-04-19T05:59:44.256Z,350.00
2023-04-19T06:00:44.207Z,347.00
2023-04-19T06:01:44.333Z,349.00
2023-04-19T06:02:44.364Z,351.00
2023-04-19T06:03:44.374Z,349.00
2023-04-19T06:04:44.542Z,350.00
2023-04-19T06:05:44.238Z,350.00
2023-04-19T06:06:44.183Z,350.00
2023-04-19T06:07:54.551Z,353.00
2023-04-19T06:08:45.263Z,351.00
2023-04-19T06:09:44.217Z,350.00
2023-04-19T06:10:53.392Z,349.00
2023-04-19T06:11:50.820Z,348.00
2023-04-19T06:12:45.179Z,349.00
2023-04-19T06:13:44.156Z,350.00
2023-04-19T06:14:44.194Z,352.00
2023-04-19T06:15:44.188Z,353.00
2023-04-19T06:16:44.157Z,354.00
2023-04-19T06:17:44.176Z,353.00
2023-04-19T06:18:44.153Z,353.00
2023-04-19T06:19:44.151Z,353.00
2023-04-19T06:20:44.134Z,357.00
2023-04-19T06:21:44.126Z,358.00
2023-04-19T06:22:44.138Z,359.00
2023-04-19T06:23:44.105Z,357.00
2023-04-19T06:24:44.123Z,357.00
2023-04-19T06:25:44.094Z,356.00
2023-04-19T06:26:44.089Z,353.00
2023-04-19T06:27:44.087Z,353.00
2023-04-19T06:28:44.122Z,353.00
2023-04-19T06:29:44.099Z,356.00
2023-04-19T06:30:44.091Z,358.00
2023-04-19T06:31:44.120Z,362.00
2023-04-19T06:32:44.130Z,364.00
2023-04-19T06:33:44.070Z,363.00
2023-04-19T06:34:44.085Z,362.00
2023-04-19T06:35:44.083Z,365.00
2023-04-19T06:36:44.095Z,364.00
2023-04-19T06:37:44.067Z,364.00
2023-04-19T06:38:44.048Z,363.00
2023-04-19T06:39:44.088Z,366.00
2023-04-19T06:40:44.041Z,368.00
2023-04-19T06:41:44.047Z,368.00
2023-04-19T06:42:44.058Z,371.00
2023-04-19T06:43:44.048Z,371.00
2023-04-19T06:44:44.034Z,370.00
2023-04-19T06:45:44.076Z,371.00
2023-04-19T06:46:44.048Z,372.00
2023-04-19T06:47:44.060Z,372.00
2023-04-19T06:48:44.029Z,373.00
2023-04-19T06:49:44.032Z,369.00
2023-04-19T06:50:44.064Z,370.00
2023-04-19T06:51:44.041Z,373.00
2023-04-19T06:52:44.047Z,373.00
2023-04-19T06:53:44.044Z,375.00
2023-04-19T06:54:44.069Z,377.00
2023-04-19T06:55:44.072Z,379.00
2023-04-19T06:56:44.050Z,382.00
2023-04-19T06:57:44.050Z,385.00
2023-04-19T06:58:44.086Z,384.00
2023-04-19T06:59:44.044Z,384.00
2023-04-19T07:00:44.056Z,384.00
2023-04-19T07:01:44.131Z,383.00
2023-04-19T07:02:44.312Z,382.00
2023-04-19T07:03:44.237Z,383.00
2023-04-19T07:04:44.196Z,383.00
2023-04-19T07:05:44.059Z,382.00
2023-04-19T07:06:44.057Z,384.00
2023-04-19T07:07:44.048Z,385.00
2023-04-19T07:08:50.267Z,386.00
2023-04-19T07:09:45.038Z,387.00
2023-04-19T07:10:44.152Z,386.00
2023-04-19T07:11:44.029Z,385.00
2023-04-19T07:12:44.023Z,384.00
2023-04-19T07:13:44.025Z,383.00
2023-04-19T07:14:44.041Z,387.00
2023-04-19T07:15:44.057Z,387.00
2023-04-19T07:16:44.044Z,385.00
2023-04-19T07:17:44.066Z,385.00
2023-04-19T07:18:44.050Z,387.00
2023-04-19T07:19:44.050Z,387.00
2023-04-19T07:20:44.052Z,388.00
2023-04-19T07:21:44.085Z,393.00
2023-04-19T07:22:44.053Z,392.00
2023-04-19T07:23:44.058Z,393.00
2023-04-19T07:24:44.077Z,394.00
2023-04-19T07:25:44.068Z,393.00
2023-04-19T07:26:44.090Z,395.00
2023-04-19T07:27:44.058Z,394.00
2023-04-19T07:28:44.056Z,394.00
2023-04-19T07:29:44.065Z,393.00
2023-04-19T07:30:44.204Z,393.00
2023-04-19T07:31:44.097Z,393.00
2023-04-19T07:32:44.269Z,391.00
2023-04-19T07:33:44.077Z,394.00
2023-04-19T07:34:44.073Z,397.00
2023-04-19T07:35:44.079Z,396.00
2023-04-19T07:36:44.058Z,397.00
2023-04-19T07:37:44.077Z,399.00
2023-04-19T07:38:44.050Z,402.00
2023-04-19T07:39:44.064Z,403.00
2023-04-19T07:40:44.052Z,405.00
2023-04-19T07:41:44.077Z,405.00
2023-04-19T07:42:44.046Z,405.00
2023-04-19T07:43:44.037Z,406.00
2023-04-19T07:44:44.053Z,408.00
2023-04-19T07:45:44.078Z,409.00
2023-04-19T07:46:44.104Z,409.00
2023-04-19T07:47:44.072Z,409.00
2023-04-19T07:48:44.055Z,409.00
2023-04-19T07:49:44.050Z,408.00
2023-04-19T07:50:44.065Z,407.00
2023-04-19T07:51:44.057Z,409.00
2023-04-19T07:52:44.045Z,409.00
2023-04-19T07:53:44.057Z,408.00
2023-04-19T07:54:44.044Z,408.00
2023-04-19T07:55:44.035Z,409.00
2023-04-19T07:56:44.044Z,411.00
2023-04-19T07:57:44.006Z,413.00
2023-04-19T07:58:46.652Z,412.00
2023-04-19T07:59:44.003Z,412.00
2023-04-19T08:00:44.040Z,410.00
2023-04-19T08:01:44.096Z,408.00
2023-04-19T08:02:44.273Z,409.00
2023-04-19T08:03:44.220Z,407.00
2023-04-19T08:04:44.417Z,409.00
2023-04-19T08:05:44.070Z,412.00
2023-04-19T08:06:44.001Z,414.00
2023-04-19T08:07:44.016Z,416.00
2023-04-19T08:08:44.056Z,415.00
2023-04-19T08:09:44.053Z,416.00
2023-04-19T08:10:44.022Z,415.00
2023-04-19T08:11:44.004Z,414.00
2023-04-19T08:12:53.550Z,415.00
2023-04-19T08:13:55.673Z,416.00
2023-04-19T08:14:59.419Z,416.00
2023-04-19T08:17:19.414Z,416.00
2023-04-19T08:17:45.194Z,416.00
2023-04-19T08:18:44.017Z,419.00
2023-04-19T08:19:43.985Z,418.00
2023-04-19T08:20:43.964Z,418.00
2023-04-19T08:21:43.954Z,420.00
2023-04-19T08:22:43.952Z,418.00
2023-04-19T08:23:48.259Z,417.00
2023-04-19T08:24:43.995Z,415.00
2023-04-19T08:25:43.954Z,414.00
2023-04-19T08:26:43.968Z,412.00
2023-04-19T08:27:43.944Z,413.00
2023-04-19T08:28:43.959Z,414.00
2023-04-19T08:29:43.966Z,412.00
2023-04-19T08:30:43.996Z,409.00
2023-04-19T08:31:44.002Z,406.00
2023-04-19T08:32:44.022Z,408.00
2023-04-19T08:33:43.935Z,409.00
2023-04-19T08:34:44.112Z,410.00
2023-04-19T08:35:44.008Z,411.00
2023-04-19T08:36:51.786Z,412.00
2023-04-19T08:37:44.935Z,414.00
2023-04-19T08:38:46.660Z,414.00
2023-04-19T08:39:44.933Z,414.00
2023-04-19T08:40:43.982Z,414.00
2023-04-19T08:41:46.318Z,414.00
2023-04-19T08:42:43.973Z,414.00
2023-04-19T08:43:43.945Z,416.00
2023-04-19T08:45:43.961Z,420.00
2023-04-19T08:46:44.022Z,420.00
2023-04-19T08:47:58.969Z,422.00
2023-04-19T08:48:45.077Z,422.00
2023-04-19T08:49:44.775Z,422.00
2023-04-19T08:51:00.690Z,420.00
2023-04-19T08:51:44.956Z,417.00
2023-04-19T08:52:54.110Z,417.00
2023-04-19T08:53:44.957Z,417.00
2023-04-19T08:54:43.929Z,418.00
2023-04-19T08:55:59.194Z,418.00
2023-04-19T08:56:44.919Z,417.00
2023-04-19T08:57:43.924Z,417.00
2023-04-19T08:59:43.932Z,418.00
2023-04-19T09:00:43.966Z,419.00
2023-04-19T09:01:44.857Z,419.00
2023-04-19T09:02:44.180Z,418.00
2023-04-19T09:03:58.408Z,417.00
2023-04-19T09:04:45.215Z,417.00
2023-04-19T09:05:44.196Z,416.00
2023-04-19T09:06:44.574Z,415.00
2023-04-19T09:07:43.969Z,413.00
2023-04-19T09:08:43.979Z,414.00
2023-04-19T09:09:59.761Z,415.00
2023-04-19T09:10:44.994Z,417.00
2023-04-19T09:11:43.950Z,419.00
2023-04-19T09:12:44.009Z,420.00
2023-04-19T09:13:43.963Z,420.00
2023-04-19T09:14:50.362Z,419.00
2023-04-19T09:15:45.076Z,420.00
2023-04-19T09:16:43.944Z,420.00
2023-04-19T09:17:43.996Z,418.00
2023-04-19T09:18:56.224Z,420.00
2023-04-19T09:19:44.938Z,420.00
2023-04-19T09:20:44.243Z,422.00
2023-04-19T09:21:43.892Z,422.00
2023-04-19T09:22:43.900Z,422.00
2023-04-19T09:23:43.876Z,425.00
2023-04-19T09:26:43.878Z,426.00
2023-04-19T09:27:43.883Z,428.00
2023-04-19T09:28:43.864Z,434.00
2023-04-19T09:29:43.864Z,436.00
2023-04-19T09:30:55.156Z,435.00
2023-04-19T09:31:51.647Z,434.00
2023-04-19T09:32:44.915Z,438.00
2023-04-19T09:33:43.861Z,444.00
2023-04-19T09:34:43.836Z,465.00
2023-04-19T09:35:43.809Z,466.00
2023-04-19T09:36:43.800Z,459.00
2023-04-19T09:38:43.777Z,456.00
2023-04-19T09:39:43.784Z,455.00
2023-04-19T09:42:02.710Z,474.00
2023-04-19T09:43:15.095Z,464.00
2023-04-19T09:45:29.071Z,461.00
2023-04-19T09:46:03.895Z,459.00
2023-04-19T09:47:02.866Z,462.00
2023-04-19T09:48:02.760Z,463.00
2023-04-19T09:49:09.486Z,458.00
2023-04-19T09:50:11.772Z,456.00
2023-04-19T09:51:07.633Z,452.00
2023-04-19T09:52:03.724Z,454.00
2023-04-19T09:53:02.693Z,456.00
2023-04-19T09:54:02.688Z,454.00
2023-04-19T09:55:08.825Z,457.00
2023-04-19T09:56:04.508Z,460.00
2023-04-19T09:57:02.700Z,459.00
2023-04-19T09:58:02.694Z,459.00
2023-04-19T09:59:17.098Z,459.00
2023-04-19T10:00:03.743Z,458.00
2023-04-19T10:01:13.425Z,460.00
2023-04-19T10:02:03.762Z,461.00
2023-04-19T10:03:02.729Z,461.00
2023-04-19T10:04:14.956Z,461.00
2023-04-19T10:05:19.824Z,466.00
2023-04-19T10:06:10.740Z,467.00
2023-04-19T10:08:02.710Z,466.00
2023-04-19T10:09:02.681Z,464.00
2023-04-19T10:10:15.897Z,465.00
2023-04-19T10:11:03.679Z,465.00
2023-04-19T10:12:13.145Z,466.00
2023-04-19T10:14:02.654Z,464.00
2023-04-19T10:15:02.646Z,466.00
2023-04-19T10:16:15.784Z,467.00
2023-04-19T10:17:03.657Z,469.00
2023-04-19T10:18:02.667Z,470.00
2023-04-19T10:19:02.637Z,470.00
2023-04-19T10:20:02.637Z,472.00
2023-04-19T10:21:02.680Z,469.00
2023-04-19T10:22:02.649Z,468.00
2023-04-19T10:23:02.642Z,469.00
2023-04-19T10:24:02.644Z,468.00
2023-04-19T10:25:02.654Z,469.00
2023-04-19T10:26:02.966Z,469.00
2023-04-19T10:27:02.715Z,467.00
2023-04-19T10:28:02.662Z,468.00
2023-04-19T10:29:02.654Z,471.00
2023-04-19T10:30:02.680Z,475.00
2023-04-19T10:31:02.687Z,476.00
2023-04-19T10:32:02.703Z,478.00
2023-04-19T10:33:02.724Z,477.00
2023-04-19T10:34:02.662Z,477.00
2023-04-19T10:35:02.690Z,475.00
2023-04-19T10:36:02.832Z,476.00
2023-04-19T10:37:02.663Z,480.00
2023-04-19T10:38:02.696Z,483.00
2023-04-19T10:39:02.666Z,485.00
2023-04-19T10:40:02.671Z,488.00
2023-04-19T10:41:02.666Z,487.00
2023-04-19T10:42:02.687Z,485.00
2023-04-19T10:43:02.656Z,485.00
2023-04-19T10:44:02.674Z,487.00
2023-04-19T10:45:02.675Z,487.00
2023-04-19T10:46:02.763Z,485.00
2023-04-19T10:47:02.680Z,487.00
2023-04-19T10:48:02.748Z,487.00
2023-04-19T10:49:02.676Z,489.00
2023-04-19T10:50:02.687Z,489.00
2023-04-19T10:51:02.740Z,489.00
2023-04-19T10:52:02.693Z,488.00
2023-04-19T10:53:02.695Z,489.00
2023-04-19T10:54:02.700Z,489.00
2023-04-19T10:55:02.704Z,491.00
2023-04-19T10:56:02.697Z,490.00
2023-04-19T10:57:02.774Z,488.00
2023-04-19T10:58:02.709Z,486.00
2023-04-19T10:59:02.772Z,485.00
2023-04-19T11:00:02.741Z,485.00
2023-04-19T11:01:02.816Z,488.00
2023-04-19T11:02:02.995Z,487.00
2023-04-19T11:03:02.855Z,485.00
2023-04-19T11:04:03.167Z,485.00
2023-04-19T11:05:02.756Z,485.00
2023-04-19T11:06:02.751Z,485.00
2023-04-19T11:07:02.800Z,485.00
2023-04-19T11:08:02.754Z,486.00
2023-04-19T11:09:02.758Z,485.00
2023-04-19T11:10:02.794Z,487.00
2023-04-19T11:11:02.823Z,491.00
2023-04-19T11:12:02.829Z,491.00
2023-04-19T11:13:02.790Z,492.00
2023-04-19T11:14:02.787Z,494.00
2023-04-19T11:15:02.791Z,496.00
2023-04-19T11:16:02.928Z,495.00
2023-04-19T11:17:03.012Z,495.00
2023-04-19T11:18:12.676Z,494.00
2023-04-19T11:19:03.833Z,496.00
2023-04-19T11:20:02.816Z,494.00
2023-04-19T11:21:02.841Z,496.00
2023-04-19T11:22:02.804Z,495.00
2023-04-19T11:23:02.799Z,493.00
2023-04-19T11:24:02.803Z,492.00
2023-04-19T11:25:02.811Z,495.00
2023-04-19T11:26:02.834Z,495.00
2023-04-19T11:27:02.813Z,497.00
2023-04-19T11:28:02.808Z,499.00
2023-04-19T11:29:02.836Z,499.00
2023-04-19T11:30:02.814Z,499.00
2023-04-19T11:31:02.864Z,497.00
2023-04-19T11:32:02.830Z,499.00
2023-04-19T11:33:02.839Z,499.00
2023-04-19T11:34:02.821Z,500.00
2023-04-19T11:35:02.802Z,500.00
2023-04-19T11:36:02.813Z,501.00
2023-04-19T11:37:02.797Z,499.00
2023-04-19T11:38:02.798Z,501.00
2023-04-19T11:39:02.802Z,500.00
2023-04-19T11:40:04.694Z,499.00
2023-04-19T11:41:02.812Z,501.00
2023-04-19T11:42:02.805Z,500.00
2023-04-19T11:43:02.805Z,498.00
2023-04-19T11:44:02.811Z,498.00
2023-04-19T11:45:02.967Z,498.00
2023-04-19T11:46:02.868Z,499.00
2023-04-19T11:47:02.999Z,498.00
2023-04-19T11:48:02.844Z,498.00
2023-04-19T11:49:02.820Z,498.00
2023-04-19T11:50:02.824Z,501.00
2023-04-19T11:51:02.861Z,503.00
2023-04-19T11:52:05.556Z,498.00
2023-04-19T11:53:02.819Z,500.00
2023-04-19T11:54:02.822Z,504.00
2023-04-19T11:55:02.869Z,504.00
2023-04-19T11:56:02.838Z,504.00
2023-04-19T11:57:02.852Z,503.00
2023-04-19T11:58:02.865Z,502.00
2023-04-19T11:59:02.848Z,503.00
2023-04-19T12:00:02.890Z,507.00
2023-04-19T12:01:02.887Z,510.00
2023-04-19T12:02:03.001Z,510.00
2023-04-19T12:03:03.138Z,510.00
2023-04-19T12:04:02.936Z,510.00
2023-04-19T12:05:03.206Z,511.00
2023-04-19T12:06:02.940Z,511.00
2023-04-19T12:07:02.895Z,513.00
2023-04-19T12:08:02.908Z,514.00
2023-04-19T12:09:02.869Z,515.00
2023-04-19T12:10:02.872Z,516.00
2023-04-19T12:11:02.875Z,517.00
2023-04-19T12:12:03.104Z,517.00
2023-04-19T12:13:02.877Z,518.00
2023-04-19T12:14:02.885Z,520.00
2023-04-19T12:15:02.869Z,522.00
2023-04-19T12:16:02.896Z,519.00
2023-04-19T12:17:02.977Z,520.00
2023-04-19T12:18:02.928Z,521.00
2023-04-19T12:19:02.876Z,521.00
2023-04-19T12:20:02.861Z,524.00
2023-04-19T12:21:02.904Z,527.00
2023-04-19T12:22:02.871Z,528.00
2023-04-19T12:23:02.863Z,529.00
2023-04-19T12:24:02.856Z,530.00
2023-04-19T12:25:02.864Z,529.00
2023-04-19T12:26:02.919Z,529.00
2023-04-19T12:27:02.902Z,529.00
2023-04-19T12:28:02.980Z,529.00
2023-04-19T12:29:02.875Z,530.00
2023-04-19T12:30:02.968Z,529.00
2023-04-19T12:31:02.884Z,530.00
2023-04-19T12:32:02.910Z,533.00
2023-04-19T12:33:02.947Z,534.00
2023-04-19T12:34:03.092Z,533.00
2023-04-19T12:35:03.002Z,532.00
2023-04-19T12:36:02.875Z,530.00
2023-04-19T12:37:02.929Z,532.00
2023-04-19T12:38:02.885Z,534.00
2023-04-19T12:39:02.872Z,534.00